createdAt,value
2023-03-04T00:00:35.875Z,13.07
2023-03-04T00:03:23.316Z,17.80
2023-03-04T00:05:52.063Z,14.57
2023-03-04T00:08:20.299Z,16.30
2023-03-04T00:10:48.750Z,14.93
2023-03-04T00:13:17.149Z,18.33
2023-03-04T00:15:46.936Z,19.70
2023-03-04T00:18:15.219Z,16.73
2023-03-04T00:20:43.663Z,12.53
2023-03-04T00:23:12.080Z,15.03
2023-03-04T00:25:43.486Z,11.80
2023-03-04T00:28:11.970Z,13.70
2023-03-04T00:30:40.410Z,13.20
2023-03-04T00:33:09.943Z,11.90
2023-03-04T00:35:38.503Z,15.60
2023-03-04T00:38:06.953Z,16.00
2023-03-04T00:40:35.505Z,15.47
2023-03-04T00:43:04.195Z,18.20
2023-03-04T00:45:32.729Z,15.27
2023-03-04T00:48:00.989Z,18.97
2023-03-04T00:50:30.932Z,19.40
2023-03-04T00:52:59.138Z,16.17
2023-03-04T00:55:27.929Z,16.63
2023-03-04T00:57:56.311Z,19.07
2023-03-04T01:00:24.977Z,18.00
2023-03-04T01:02:53.185Z,24.47
2023-03-04T01:05:21.797Z,18.70
2023-03-04T01:07:51.427Z,15.27
2023-03-04T01:10:20.428Z,17.87
2023-03-04T01:12:48.643Z,20.17
2023-03-04T01:15:17.323Z,19.93
2023-03-04T01:17:45.929Z,14.50
2023-03-04T01:20:14.844Z,18.80
2023-03-04T01:22:43.326Z,20.63
2023-03-04T01:25:13.257Z,20.43
2023-03-04T01:27:41.459Z,20.00
2023-03-04T01:30:11.478Z,17.63
2023-03-04T01:32:39.600Z,20.70
2023-03-04T01:35:08.682Z,17.13
2023-03-04T01:37:36.975Z,18.60
2023-03-04T01:40:06.577Z,13.67
2023-03-04T01:42:37.647Z,18.70
2023-03-04T01:45:08.008Z,16.37
2023-03-04T01:47:36.738Z,20.13
2023-03-04T01:50:12.332Z,16.93
2023-03-04T01:52:42.916Z,15.87
2023-03-04T01:55:17.399Z,13.73
2023-03-04T01:57:48.467Z,17.30
2023-03-04T02:00:28.496Z,18.47
2023-03-04T02:03:00.642Z,17.30
2023-03-04T02:05:30.648Z,16.93
2023-03-04T02:08:01.580Z,16.03
2023-03-04T02:10:30.230Z,15.33
2023-03-04T02:13:00.441Z,13.90
2023-03-04T02:15:29.736Z,15.80
2023-03-04T02:17:58.402Z,20.67
2023-03-04T02:20:41.555Z,14.23
2023-03-04T02:23:18.256Z,19.73
2023-03-04T02:25:51.475Z,14.80
2023-03-04T02:28:21.728Z,14.73
2023-03-04T02:30:50.274Z,20.23
2023-03-04T02:33:19.911Z,19.00
2023-03-04T02:35:48.673Z,14.83
2023-03-04T02:38:17.105Z,19.57
2023-03-04T02:40:50.547Z,11.90
2023-03-04T02:43:20.111Z,16.00
2023-03-04T02:45:50.653Z,11.10
2023-03-04T02:48:21.092Z,20.07
2023-03-04T02:50:52.726Z,10.53
2023-03-04T02:53:22.017Z,18.37
2023-03-04T02:55:50.797Z,13.30
2023-03-04T02:58:20.422Z,16.67
2023-03-04T03:00:48.926Z,10.00
2023-03-04T03:03:17.390Z,16.83
2023-03-04T03:05:47.315Z,14.60
2023-03-04T03:08:15.528Z,11.60
2023-03-04T03:10:44.244Z,16.13
2023-03-04T03:13:12.586Z,10.20
2023-03-04T03:15:42.712Z,15.90
2023-03-04T03:18:11.240Z,13.03
2023-03-04T03:20:39.749Z,11.27
2023-03-04T03:23:08.063Z,12.03
2023-03-04T03:25:36.724Z,15.27
2023-03-04T03:28:05.253Z,13.93
2023-03-04T03:30:34.012Z,11.10
2023-03-04T03:33:03.522Z,12.53
2023-03-04T03:35:32.392Z,15.00
2023-03-04T03:38:00.676Z,14.33
2023-03-04T03:40:29.135Z,12.40
2023-03-04T03:42:57.324Z,12.17
2023-03-04T03:45:25.850Z,11.43
2023-03-04T03:47:54.198Z,16.27
2023-03-04T03:50:25.663Z,10.10
2023-03-04T03:52:53.839Z,17.53
2023-03-04T03:55:22.432Z,10.63
2023-03-04T03:57:50.695Z,14.30
2023-03-04T04:00:20.052Z,11.93
2023-03-04T04:02:48.359Z,13.30
2023-03-04T04:05:17.776Z,9.87
2023-03-04T04:07:47.384Z,12.73
2023-03-04T04:10:15.938Z,10.60
2023-03-04T04:12:44.178Z,23.10
2023-03-04T04:15:13.307Z,18.67
2023-03-04T04:17:41.643Z,13.97
2023-03-04T04:20:11.353Z,11.33
2023-03-04T04:22:39.616Z,10.00
2023-03-04T04:25:10.634Z,10.03
2023-03-04T04:27:39.260Z,10.63
2023-03-04T04:30:08.676Z,14.03
2023-03-04T04:32:36.936Z,11.90
2023-03-04T04:35:06.026Z,9.90
2023-03-04T04:37:34.340Z,12.50
2023-03-04T04:40:02.851Z,10.77
2023-03-04T04:42:32.482Z,10.43
2023-03-04T04:45:00.921Z,21.53
2023-03-04T04:47:29.375Z,15.13
2023-03-04T04:49:57.873Z,10.20
2023-03-04T04:52:26.082Z,13.90
2023-03-04T04:54:54.592Z,9.33
2023-03-04T04:57:22.857Z,9.30
2023-03-04T04:59:52.807Z,7.60
2023-03-04T05:02:21.156Z,13.17
2023-03-04T05:04:49.710Z,14.93
2023-03-04T05:07:17.923Z,8.23
2023-03-04T05:09:46.755Z,22.93
2023-03-04T05:12:15.024Z,12.37
2023-03-04T05:14:43.552Z,15.03
2023-03-04T05:17:13.168Z,14.20
2023-03-04T05:19:41.620Z,9.43
2023-03-04T05:22:10.092Z,17.43
2023-03-04T05:24:38.554Z,6.00
2023-03-04T05:27:06.888Z,11.90
2023-03-04T05:29:35.425Z,14.00
2023-03-04T05:32:03.678Z,10.83
2023-03-04T05:34:33.532Z,18.10
2023-03-04T05:37:01.791Z,14.50
2023-03-04T05:39:30.319Z,12.20
2023-03-04T05:41:58.646Z,11.87
2023-03-04T05:44:27.346Z,9.50
2023-03-04T05:46:55.646Z,4.57
2023-03-04T05:49:24.211Z,11.27
2023-03-04T05:51:54.710Z,17.47
2023-03-04T05:54:23.255Z,11.83
2023-03-04T05:56:51.404Z,8.07
2023-03-04T05:59:20.854Z,8.20
2023-03-04T06:01:49.325Z,10.23
2023-03-04T06:04:18.014Z,9.47
2023-03-04T06:06:47.443Z,9.20
2023-03-04T06:09:17.486Z,11.53
2023-03-04T06:11:45.732Z,12.77
2023-03-04T06:14:14.387Z,8.27
2023-03-04T06:16:42.836Z,13.60
2023-03-04T06:19:11.493Z,8.57
2023-03-04T06:21:39.760Z,14.37
2023-03-04T06:24:08.518Z,7.97
2023-03-04T06:26:38.145Z,14.30
2023-03-04T06:29:06.773Z,12.43
2023-03-04T06:31:35.070Z,10.10
2023-03-04T06:34:03.704Z,7.80
2023-03-04T06:36:32.217Z,12.40
2023-03-04T06:39:00.757Z,7.63
2023-03-04T06:41:29.000Z,8.27
2023-03-04T06:43:58.988Z,13.10
2023-03-04T06:46:30.062Z,11.30
2023-03-04T06:48:59.028Z,13.53
2023-03-04T06:51:27.695Z,11.90
2023-03-04T06:53:56.392Z,13.57
2023-03-04T06:56:24.631Z,11.20
2023-03-04T06:58:53.511Z,7.90
2023-03-04T07:01:26.079Z,10.23
2023-03-04T07:03:55.959Z,11.33
2023-03-04T07:06:27.364Z,10.63
2023-03-04T07:08:55.980Z,6.93
2023-03-04T07:11:24.420Z,10.67
2023-03-04T07:13:53.219Z,10.23
2023-03-04T07:16:24.261Z,9.73
2023-03-04T07:18:52.908Z,9.23
2023-03-04T07:21:21.221Z,7.53
2023-03-04T07:23:50.024Z,8.80
2023-03-04T07:26:19.018Z,10.47
2023-03-04T07:28:47.818Z,12.47
2023-03-04T07:31:24.470Z,13.40
2023-03-04T07:33:53.158Z,17.57
2023-03-04T07:36:21.735Z,13.77
2023-03-04T07:38:51.759Z,5.33
2023-03-04T07:41:20.203Z,9.20
2023-03-04T07:43:49.346Z,6.53
2023-03-04T07:46:18.136Z,7.50
2023-03-04T07:48:48.339Z,5.17
2023-03-04T07:51:18.441Z,7.97
2023-03-04T07:53:48.486Z,11.17
2023-03-04T07:56:19.497Z,11.17
2023-03-04T07:58:48.610Z,13.83
2023-03-04T08:01:19.139Z,9.70
2023-03-04T08:03:49.209Z,15.57
2023-03-04T08:06:19.484Z,8.20
2023-03-04T08:08:48.899Z,6.10
2023-03-04T08:11:19.703Z,10.37
2023-03-04T08:13:48.757Z,6.60
2023-03-04T08:16:19.619Z,9.33
2023-03-04T08:18:53.928Z,6.50
2023-03-04T08:21:24.204Z,9.07
2023-03-04T08:23:53.480Z,9.80
2023-03-04T08:26:23.992Z,7.30
2023-03-04T08:28:53.108Z,13.10
2023-03-04T08:31:21.993Z,3.97
2023-03-04T08:33:53.064Z,15.70
2023-03-04T08:36:22.171Z,19.67
2023-03-04T08:38:50.784Z,6.40
2023-03-04T08:41:19.064Z,10.60
2023-03-04T08:43:47.667Z,13.97
2023-03-04T08:46:16.058Z,12.00
2023-03-04T08:48:44.580Z,12.67
2023-03-04T08:51:17.115Z,5.53
2023-03-04T08:53:46.252Z,12.60
2023-03-04T08:56:15.460Z,13.97
2023-03-04T08:58:44.131Z,8.30
2023-03-04T09:01:14.825Z,18.23
2023-03-04T09:03:44.028Z,8.67
2023-03-04T09:06:16.685Z,5.90
2023-03-04T09:08:45.600Z,7.67
2023-03-04T09:11:14.353Z,7.83
2023-03-04T09:13:42.917Z,4.13
2023-03-04T09:16:12.534Z,6.90
2023-03-04T09:18:42.201Z,5.17
2023-03-04T09:21:11.367Z,7.80
2023-03-04T09:23:41.387Z,11.30
2023-03-04T09:26:18.589Z,5.40
2023-03-04T09:28:47.112Z,6.13
2023-03-04T09:31:16.313Z,10.83
2023-03-04T09:33:44.942Z,9.83
2023-03-04T09:36:15.723Z,6.17
2023-03-04T09:38:45.810Z,8.93
2023-03-04T09:41:19.505Z,6.10
2023-03-04T09:43:49.535Z,7.90
2023-03-04T09:46:23.866Z,8.53
2023-03-04T09:48:55.842Z,7.73
2023-03-04T09:51:31.653Z,3.60
2023-03-04T09:54:08.755Z,11.00
2023-03-04T09:56:39.476Z,4.80
2023-03-04T09:59:18.204Z,5.57
2023-03-04T10:01:51.805Z,8.47
2023-03-04T10:04:32.442Z,7.20
2023-03-04T10:07:02.338Z,4.20
2023-03-04T10:09:45.017Z,6.60
2023-03-04T10:12:18.447Z,5.00
2023-03-04T10:14:52.705Z,7.30
2023-03-04T10:17:24.975Z,10.47
2023-03-04T10:19:58.055Z,15.17
2023-03-04T10:22:33.650Z,6.37
2023-03-04T10:25:16.641Z,6.60
2023-03-04T10:27:49.650Z,8.20
2023-03-04T10:30:27.429Z,11.47
2023-03-04T10:32:55.869Z,10.40
2023-03-04T10:35:34.222Z,8.47
2023-03-04T10:38:04.649Z,8.33
2023-03-04T10:40:39.852Z,11.77
2023-03-04T10:43:16.429Z,8.57
2023-03-04T10:45:45.653Z,9.23
2023-03-04T10:48:23.738Z,9.53
2023-03-04T10:50:52.376Z,8.63
2023-03-04T10:53:34.501Z,6.97
2023-03-04T10:56:04.428Z,12.83
2023-03-04T10:58:32.905Z,12.30
2023-03-04T11:01:06.257Z,13.33
2023-03-04T11:03:37.508Z,10.30
2023-03-04T11:06:17.977Z,2.45
2023-03-04T11:08:54.091Z,3.42
2023-03-04T11:11:34.606Z,4.90
2023-03-04T11:14:19.251Z,2.60
2023-03-04T11:16:55.768Z,5.63
2023-03-04T11:19:26.451Z,2.40
2023-03-04T11:21:56.498Z,2.40
2023-03-04T11:24:29.793Z,1.73
2023-03-04T11:27:05.691Z,1.97
2023-03-04T11:29:39.333Z,3.35
2023-03-04T11:32:14.273Z,2.45
2023-03-04T11:34:49.955Z,1.17
2023-03-04T11:37:25.426Z,2.50
2023-03-04T11:39:58.089Z,1.67
2023-03-04T11:42:37.207Z,5.72
2023-03-04T11:45:27.524Z,3.88
2023-03-04T11:48:08.998Z,2.08
2023-03-04T11:50:47.438Z,3.38
2023-03-04T11:53:32.887Z,1.83
2023-03-04T11:56:25.863Z,6.32
2023-03-04T11:59:19.334Z,1.85
2023-03-04T12:01:57.001Z,1.75
2023-03-04T12:04:41.771Z,4.77
2023-03-04T12:07:23.569Z,1.33
2023-03-04T12:10:05.405Z,2.75
2023-03-04T12:12:48.344Z,0.80
2023-03-04T12:15:23.945Z,1.73
2023-03-04T12:18:16.174Z,1.80
2023-03-04T12:20:58.514Z,1.57
2023-03-04T12:23:47.556Z,3.23
2023-03-04T12:26:30.123Z,0.93
2023-03-04T12:29:05.260Z,3.10
2023-03-04T12:31:43.504Z,1.03
2023-03-04T12:34:36.867Z,1.90
2023-03-04T12:37:23.351Z,2.27
2023-03-04T12:40:07.008Z,1.35
2023-03-04T12:42:44.579Z,2.90
2023-03-04T12:45:21.470Z,2.17
2023-03-04T12:48:03.306Z,0.82
2023-03-04T12:50:42.968Z,1.20
2023-03-04T12:53:22.437Z,3.33
2023-03-04T12:55:52.060Z,0.75
2023-03-04T12:58:24.920Z,2.77
2023-03-04T13:00:59.645Z,3.53
2023-03-04T13:03:39.781Z,2.00
2023-03-04T13:06:18.492Z,3.53
2023-03-04T13:09:00.686Z,0.87
2023-03-04T13:11:54.850Z,1.57
2023-03-04T13:14:35.355Z,2.23
2023-03-04T13:17:25.367Z,1.90
2023-03-04T13:19:59.794Z,1.23
2023-03-04T13:22:35.375Z,2.20
2023-03-04T13:25:32.496Z,1.40
2023-03-04T13:28:20.678Z,1.43
2023-03-04T13:31:21.968Z,1.07
2023-03-04T13:33:57.364Z,1.50
2023-03-04T13:37:03.758Z,6.70
2023-03-04T13:39:37.162Z,1.77
2023-03-04T13:42:42.217Z,1.93
2023-03-04T13:45:33.728Z,1.00
2023-03-04T13:48:03.702Z,1.27
2023-03-04T13:50:45.859Z,1.17
2023-03-04T13:53:39.041Z,3.50
2023-03-04T13:56:31.382Z,4.50
2023-03-04T13:59:12.554Z,1.27
2023-03-04T14:01:57.362Z,1.10
2023-03-04T14:04:30.329Z,1.23
2023-03-04T14:07:00.976Z,0.87
2023-03-04T14:09:32.480Z,2.60
2023-03-04T14:12:03.937Z,1.67
2023-03-04T14:14:48.816Z,4.27
2023-03-04T14:17:21.050Z,0.70
2023-03-04T14:19:53.638Z,1.90
2023-03-04T14:22:25.301Z,4.13
2023-03-04T14:25:00.047Z,2.17
2023-03-04T14:27:28.532Z,2.63
2023-03-04T14:29:58.142Z,2.47
2023-03-04T14:32:27.898Z,13.17
2023-03-04T14:35:00.385Z,1.40
2023-03-04T14:37:35.205Z,0.80
2023-03-04T14:40:06.359Z,0.97
2023-03-04T14:42:40.118Z,4.17
2023-03-04T14:45:11.715Z,0.93
2023-03-04T14:47:45.319Z,2.50
2023-03-04T14:50:16.772Z,1.93
2023-03-04T14:52:46.688Z,0.70
2023-03-04T14:55:24.197Z,1.63
2023-03-04T14:57:58.547Z,1.97
2023-03-04T15:00:30.611Z,3.07
2023-03-04T15:03:01.144Z,1.57
2023-03-04T15:05:31.431Z,6.30
2023-03-04T15:08:01.628Z,4.00
2023-03-04T15:10:33.933Z,2.50
2023-03-04T15:13:03.970Z,2.43
2023-03-04T15:15:39.864Z,1.30
2023-03-04T15:18:26.358Z,3.70
2023-03-04T15:20:58.134Z,2.50
2023-03-04T15:23:27.054Z,0.80
2023-03-04T15:25:59.458Z,1.53
2023-03-04T15:28:31.519Z,0.80
2023-03-04T15:31:00.201Z,1.63
2023-03-04T15:33:28.529Z,2.20
2023-03-04T15:35:59.502Z,3.37
2023-03-04T15:38:29.198Z,6.87
2023-03-04T15:41:00.139Z,3.90
2023-03-04T15:43:28.419Z,1.63
2023-03-04T15:45:56.962Z,4.33
2023-03-04T15:48:25.238Z,3.20
2023-03-04T15:50:57.433Z,3.13
2023-03-04T15:53:32.722Z,6.00
2023-03-04T15:56:03.937Z,2.77
2023-03-04T15:58:35.162Z,3.93
2023-03-04T16:01:04.871Z,3.00
2023-03-04T16:03:33.534Z,2.23
2023-03-04T16:06:02.237Z,0.70
2023-03-04T16:08:30.512Z,1.80
2023-03-04T16:10:59.013Z,1.50
2023-03-04T16:13:28.631Z,1.53
2023-03-04T16:15:57.681Z,2.63
2023-03-04T16:18:26.031Z,2.43
2023-03-04T16:20:54.705Z,1.57
2023-03-04T16:23:25.076Z,1.43
2023-03-04T16:25:57.050Z,0.93
2023-03-04T16:28:25.355Z,4.30
2023-03-04T16:30:55.424Z,2.97
2023-03-04T16:33:23.699Z,3.97
2023-03-04T16:35:52.500Z,11.90
2023-03-04T16:38:26.211Z,2.30
2023-03-04T16:40:56.068Z,1.97
2023-03-04T16:43:25.141Z,4.17
2023-03-04T16:45:55.047Z,2.67
2023-03-04T16:48:23.499Z,2.80
2023-03-04T16:50:52.457Z,5.60
2023-03-04T16:53:27.894Z,4.17
2023-03-04T16:55:58.827Z,5.17
2023-03-04T16:58:27.179Z,3.07
2023-03-04T17:00:57.197Z,4.83
2023-03-04T17:03:25.413Z,4.00
2023-03-04T17:05:53.965Z,2.93
2023-03-04T17:08:22.199Z,1.67
2023-03-04T17:10:50.706Z,1.13
2023-03-04T17:13:18.954Z,2.20
2023-03-04T17:15:47.535Z,1.90
2023-03-04T17:18:17.148Z,3.67
2023-03-04T17:20:45.742Z,2.03
2023-03-04T17:23:14.055Z,4.27
2023-03-04T17:25:42.609Z,2.83
2023-03-04T17:28:10.883Z,2.90
2023-03-04T17:30:39.574Z,1.27
2023-03-04T17:33:07.752Z,4.43
2023-03-04T17:35:39.987Z,2.97
2023-03-04T17:38:08.243Z,2.20
2023-03-04T17:40:36.962Z,4.97
2023-03-04T17:43:11.205Z,7.67
2023-03-04T17:45:39.869Z,2.67
2023-03-04T17:48:08.867Z,5.87
2023-03-04T17:50:38.720Z,6.77
2023-03-04T17:53:06.926Z,1.40
2023-03-04T17:55:35.362Z,3.00
2023-03-04T17:58:03.511Z,2.67
2023-03-04T18:00:32.163Z,4.63
2023-03-04T18:03:00.465Z,6.90
2023-03-04T18:05:29.040Z,4.03
2023-03-04T18:07:58.650Z,3.40
2023-03-04T18:10:27.690Z,5.07
2023-03-04T18:12:55.915Z,4.37
2023-03-04T18:15:24.454Z,4.93
2023-03-04T18:17:52.670Z,3.57
2023-03-04T18:20:21.224Z,7.73
2023-03-04T18:22:49.465Z,5.27
2023-03-04T18:25:19.490Z,6.00
2023-03-04T18:27:47.871Z,5.03
2023-03-04T18:30:17.827Z,7.27
2023-03-04T18:32:52.308Z,3.30
2023-03-04T18:35:21.379Z,10.93
2023-03-04T18:37:50.149Z,12.23
2023-03-04T18:40:20.269Z,5.90
2023-03-04T18:42:52.211Z,4.00
2023-03-04T18:45:21.512Z,4.47
2023-03-04T18:47:52.776Z,4.33
2023-03-04T18:50:22.104Z,3.17
2023-03-04T18:52:52.662Z,7.03
2023-03-04T18:55:23.819Z,10.20
2023-03-04T18:57:54.992Z,4.37
2023-03-04T19:00:25.418Z,7.90
2023-03-04T19:02:57.891Z,5.50
2023-03-04T19:05:29.140Z,8.50
2023-03-04T19:07:57.432Z,12.70
2023-03-04T19:10:28.956Z,11.60
2023-03-04T19:12:59.544Z,15.47
2023-03-04T19:15:28.616Z,20.50
2023-03-04T19:17:56.889Z,21.17
2023-03-04T19:20:25.463Z,17.33
2023-03-04T19:22:54.443Z,17.00
2023-03-04T19:25:25.587Z,17.53
2023-03-04T19:27:56.486Z,15.57
2023-03-04T19:30:25.117Z,9.97
2023-03-04T19:32:55.049Z,11.10
2023-03-04T19:35:26.306Z,13.97
2023-03-04T19:37:54.800Z,17.13
2023-03-04T19:40:24.701Z,10.30
2023-03-04T19:42:54.276Z,18.53
2023-03-04T19:45:22.910Z,20.63
2023-03-04T19:47:51.181Z,18.27
2023-03-04T19:50:19.876Z,18.43
2023-03-04T19:52:48.117Z,14.50
2023-03-04T19:55:16.705Z,14.13
2023-03-04T19:57:44.997Z,11.97
2023-03-04T20:00:15.807Z,19.07
2023-03-04T20:02:45.669Z,16.63
2023-03-04T20:05:14.539Z,16.67
2023-03-04T20:07:43.822Z,11.23
2023-03-04T20:10:14.457Z,9.40
2023-03-04T20:12:42.706Z,16.50
2023-03-04T20:15:11.899Z,10.77
2023-03-04T20:17:41.527Z,15.60
2023-03-04T20:20:12.522Z,9.20
2023-03-04T20:22:40.843Z,16.30
2023-03-04T20:25:10.070Z,14.03
2023-03-04T20:27:38.490Z,20.87
2023-03-04T20:30:07.895Z,21.47
2023-03-04T20:32:36.248Z,31.83
2023-03-04T20:35:06.948Z,24.77
2023-03-04T20:37:36.106Z,23.17
2023-03-04T20:40:05.008Z,23.03
2023-03-04T20:42:33.958Z,22.60
2023-03-04T20:45:02.419Z,25.93
2023-03-04T20:47:31.206Z,15.43
2023-03-04T20:49:59.706Z,20.57
2023-03-04T20:52:29.328Z,28.60
2023-03-04T20:54:57.856Z,18.53
2023-03-04T20:57:26.050Z,18.50
2023-03-04T20:59:54.693Z,11.20
2023-03-04T21:02:23.519Z,18.13
2023-03-04T21:04:52.460Z,13.47
2023-03-04T21:07:20.680Z,22.10
2023-03-04T21:09:50.704Z,18.63
2023-03-04T21:12:18.883Z,12.00
2023-03-04T21:14:47.505Z,12.33
2023-03-04T21:17:15.686Z,16.97
2023-03-04T21:19:44.622Z,24.20
2023-03-04T21:22:16.040Z,17.87
2023-03-04T21:24:45.558Z,12.67
2023-03-04T21:27:16.800Z,15.20
2023-03-04T21:29:45.891Z,21.40
2023-03-04T21:32:24.163Z,12.23
2023-03-04T21:34:54.911Z,17.60
2023-03-04T21:37:24.805Z,19.33
2023-03-04T21:39:53.504Z,15.23
2023-03-04T21:42:23.220Z,13.27
2023-03-04T21:44:52.140Z,13.83
2023-03-04T21:47:20.918Z,16.20
2023-03-04T21:49:49.768Z,15.80
2023-03-04T21:52:19.401Z,15.77
2023-03-04T21:54:48.078Z,12.53
2023-03-04T21:57:16.312Z,12.33
2023-03-04T21:59:46.878Z,17.07
2023-03-04T22:02:16.731Z,20.13
2023-03-04T22:04:45.575Z,11.57
2023-03-04T22:07:14.641Z,17.27
2023-03-04T22:09:43.311Z,12.30
2023-03-04T22:12:11.785Z,18.73
2023-03-04T22:14:40.220Z,18.53
2023-03-04T22:17:14.460Z,15.60
2023-03-04T22:19:44.538Z,17.83
2023-03-04T22:22:18.002Z,14.23
2023-03-04T22:24:46.728Z,11.87
2023-03-04T22:27:15.181Z,17.57
2023-03-04T22:29:43.910Z,18.37
2023-03-04T22:32:12.438Z,13.30
2023-03-04T22:34:41.258Z,13.30
2023-03-04T22:37:11.037Z,15.83
2023-03-04T22:39:45.773Z,10.10
2023-03-04T22:42:14.016Z,11.93
2023-03-04T22:44:45.755Z,15.20
2023-03-04T22:47:14.166Z,13.93
2023-03-04T22:49:42.996Z,16.50
2023-03-04T22:52:12.810Z,14.83
2023-03-04T22:54:41.519Z,11.90
2023-03-04T22:57:10.006Z,8.83
2023-03-04T22:59:38.779Z,8.37
2023-03-04T23:02:07.632Z,8.57
2023-03-04T23:04:36.301Z,15.07
2023-03-04T23:07:04.696Z,10.00
2023-03-04T23:09:34.500Z,10.37
2023-03-04T23:12:02.737Z,14.50
2023-03-04T23:14:31.356Z,10.20
2023-03-04T23:16:59.720Z,13.93
2023-03-04T23:19:28.392Z,14.53
2023-03-04T23:21:58.373Z,15.57
2023-03-04T23:24:27.549Z,13.53
2023-03-04T23:26:58.630Z,12.43
2023-03-04T23:29:27.224Z,15.07
2023-03-04T23:31:55.552Z,12.93
2023-03-04T23:34:23.992Z,15.77
2023-03-04T23:36:52.352Z,10.63
2023-03-04T23:39:20.818Z,4.70
2023-03-04T23:41:49.263Z,9.93
2023-03-04T23:44:19.203Z,11.33
2023-03-04T23:46:47.424Z,12.97
2023-03-04T23:49:17.816Z,13.53
2023-03-04T23:51:46.663Z,8.87
2023-03-04T23:54:16.132Z,10.10
2023-03-04T23:56:44.839Z,8.23
2023-03-04T23:59:13.546Z,7.33
